sensor_id;sensor_type;location;lat;lon;timestamp;P1;durP1;ratioP1;P2;durP2;ratioP2
69854;SDS011;57146;48.140;16.304;2022-08-23T00:01:18;3.53;;;0.10;;
69854;SDS011;57146;48.140;16.304;2022-08-23T00:03:50;2.35;;;0.00;;
69854;SDS011;57146;48.140;16.304;2022-08-23T00:06:19;3.57;;;0.10;;
69854;SDS011;57146;48.140;16.304;2022-08-23T00:08:47;2.42;;;0.00;;
69854;SDS011;57146;48.140;16.304;2022-08-23T00:13:51;1.17;;;0.00;;
69854;SDS011;57146;48.140;16.304;2022-08-23T00:16:19;1.67;;;0.00;;
69854;SDS011;57146;48.140;16.304;2022-08-23T00:18:46;1.23;;;0.07;;
69854;SDS011;57146;48.140;16.304;2022-08-23T00:21:15;1.05;;;0.00;;
69854;SDS011;57146;48.140;16.304;2022-08-23T00:23:42;1.00;;;0.10;;
69854;SDS011;57146;48.140;16.304;2022-08-23T00:26:09;1.10;;;0.05;;
69854;SDS011;57146;48.140;16.304;2022-08-23T00:28:36;1.92;;;0.08;;
69854;SDS011;57146;48.140;16.304;2022-08-23T00:31:03;1.20;;;0.00;;
69854;SDS011;57146;48.140;16.304;2022-08-23T00:33:30;1.00;;;0.00;;
69854;SDS011;57146;48.140;16.304;2022-08-23T00:35:57;1.20;;;0.00;;
69854;SDS011;57146;48.140;16.304;2022-08-23T00:38:24;1.90;;;0.10;;
69854;SDS011;57146;48.140;16.304;2022-08-23T00:40:59;1.40;;;0.00;;
69854;SDS011;57146;48.140;16.304;2022-08-23T00:43:30;0.90;;;0.00;;
69854;SDS011;57146;48.140;16.304;2022-08-23T00:46:09;0.95;;;0.00;;
69854;SDS011;57146;48.140;16.304;2022-08-23T00:48:38;1.27;;;0.00;;
69854;SDS011;57146;48.140;16.304;2022-08-23T00:51:14;1.10;;;0.03;;
69854;SDS011;57146;48.140;16.304;2022-08-23T00:53:52;1.80;;;0.00;;
69854;SDS011;57146;48.140;16.304;2022-08-23T00:56:23;1.20;;;0.00;;
69854;SDS011;57146;48.140;16.304;2022-08-23T00:58:56;1.27;;;0.00;;
69854;SDS011;57146;48.140;16.304;2022-08-23T01:01:24;0.93;;;0.00;;
69854;SDS011;57146;48.140;16.304;2022-08-23T01:03:52;0.95;;;0.00;;
69854;SDS011;57146;48.140;16.304;2022-08-23T01:09:13;1.00;;;0.00;;
69854;SDS011;57146;48.140;16.304;2022-08-23T01:11:45;0.90;;;0.00;;
69854;SDS011;57146;48.140;16.304;2022-08-23T01:14:29;0.93;;;0.00;;
69854;SDS011;57146;48.140;16.304;2022-08-23T01:19:47;1.33;;;0.00;;
69854;SDS011;57146;48.140;16.304;2022-08-23T01:25:06;1.02;;;0.00;;
69854;SDS011;57146;48.140;16.304;2022-08-23T01:27:38;0.98;;;0.00;;
69854;SDS011;57146;48.140;16.304;2022-08-23T01:30:11;1.35;;;0.00;;
69854;SDS011;57146;48.140;16.304;2022-08-23T01:32:42;1.13;;;0.00;;
69854;SDS011;57146;48.140;16.304;2022-08-23T01:35:13;0.60;;;0.00;;
69854;SDS011;57146;48.140;16.304;2022-08-23T01:37:41;0.90;;;0.00;;
69854;SDS011;57146;48.140;16.304;2022-08-23T01:40:09;1.10;;;0.00;;
69854;SDS011;57146;48.140;16.304;2022-08-23T01:42:37;0.68;;;0.00;;
69854;SDS011;57146;48.140;16.304;2022-08-23T01:45:04;0.93;;;0.00;;
69854;SDS011;57146;48.140;16.304;2022-08-23T01:47:32;1.20;;;0.00;;
69854;SDS011;57146;48.140;16.304;2022-08-23T01:49:59;1.13;;;0.00;;
69854;SDS011;57146;48.140;16.304;2022-08-23T01:52:27;0.77;;;0.00;;
69854;SDS011;57146;48.140;16.304;2022-08-23T01:54:54;1.58;;;0.10;;
69854;SDS011;57146;48.140;16.304;2022-08-23T01:57:21;1.85;;;0.10;;
69854;SDS011;57146;48.140;16.304;2022-08-23T01:59:50;2.50;;;0.10;;
69854;SDS011;57146;48.140;16.304;2022-08-23T02:02:17;1.10;;;0.03;;
69854;SDS011;57146;48.140;16.304;2022-08-23T02:04:44;1.17;;;0.00;;
69854;SDS011;57146;48.140;16.304;2022-08-23T02:07:11;1.20;;;0.10;;
69854;SDS011;57146;48.140;16.304;2022-08-23T02:09:38;1.23;;;0.10;;
69854;SDS011;57146;48.140;16.304;2022-08-23T02:12:06;1.60;;;0.10;;
69854;SDS011;57146;48.140;16.304;2022-08-23T02:14:34;2.25;;;0.10;;
69854;SDS011;57146;48.140;16.304;2022-08-23T02:17:02;1.85;;;0.10;;
69854;SDS011;57146;48.140;16.304;2022-08-23T02:19:34;1.60;;;0.10;;
69854;SDS011;57146;48.140;16.304;2022-08-23T02:22:04;1.00;;;0.00;;
69854;SDS011;57146;48.140;16.304;2022-08-23T02:24:32;1.03;;;0.00;;
69854;SDS011;57146;48.140;16.304;2022-08-23T02:27:02;1.88;;;0.10;;
69854;SDS011;57146;48.140;16.304;2022-08-23T02:29:35;1.13;;;0.03;;
69854;SDS011;57146;48.140;16.304;2022-08-23T02:32:08;1.27;;;0.10;;
69854;SDS011;57146;48.140;16.304;2022-08-23T02:34:38;1.58;;;0.10;;
69854;SDS011;57146;48.140;16.304;2022-08-23T02:37:07;2.27;;;0.10;;
69854;SDS011;57146;48.140;16.304;2022-08-23T02:39:37;1.17;;;0.10;;
69854;SDS011;57146;48.140;16.304;2022-08-23T02:42:06;1.55;;;0.10;;
69854;SDS011;57146;48.140;16.304;2022-08-23T02:44:39;3.28;;;0.10;;
69854;SDS011;57146;48.140;16.304;2022-08-23T02:47:06;2.20;;;0.15;;
69854;SDS011;57146;48.140;16.304;2022-08-23T02:49:36;3.33;;;0.20;;
69854;SDS011;57146;48.140;16.304;2022-08-23T02:52:04;2.17;;;0.25;;
69854;SDS011;57146;48.140;16.304;2022-08-23T02:54:32;2.25;;;0.20;;
69854;SDS011;57146;48.140;16.304;2022-08-23T02:57:00;2.28;;;0.22;;
69854;SDS011;57146;48.140;16.304;2022-08-23T02:59:27;1.80;;;0.30;;
69854;SDS011;57146;48.140;16.304;2022-08-23T03:01:54;2.80;;;0.30;;
69854;SDS011;57146;48.140;16.304;2022-08-23T03:04:30;1.92;;;0.32;;
69854;SDS011;57146;48.140;16.304;2022-08-23T03:06:57;2.90;;;0.35;;
69854;SDS011;57146;48.140;16.304;2022-08-23T03:09:25;2.63;;;0.50;;
69854;SDS011;57146;48.140;16.304;2022-08-23T03:11:52;2.47;;;0.63;;
69854;SDS011;57146;48.140;16.304;2022-08-23T03:14:20;2.57;;;0.40;;
69854;SDS011;57146;48.140;16.304;2022-08-23T03:16:47;3.45;;;0.77;;
69854;SDS011;57146;48.140;16.304;2022-08-23T03:19:14;4.13;;;0.63;;
69854;SDS011;57146;48.140;16.304;2022-08-23T03:21:41;2.30;;;0.43;;
69854;SDS011;57146;48.140;16.304;2022-08-23T03:24:10;2.53;;;0.73;;
69854;SDS011;57146;48.140;16.304;2022-08-23T03:26:42;2.23;;;0.40;;
69854;SDS011;57146;48.140;16.304;2022-08-23T03:29:11;2.83;;;0.50;;
69854;SDS011;57146;48.140;16.304;2022-08-23T03:31:56;2.28;;;0.40;;
69854;SDS011;57146;48.140;16.304;2022-08-23T03:34:24;3.10;;;0.65;;
69854;SDS011;57146;48.140;16.304;2022-08-23T03:36:52;1.80;;;0.35;;
69854;SDS011;57146;48.140;16.304;2022-08-23T03:39:19;2.23;;;0.60;;
69854;SDS011;57146;48.140;16.304;2022-08-23T03:41:46;1.73;;;0.40;;
69854;SDS011;57146;48.140;16.304;2022-08-23T03:44:13;2.33;;;0.47;;
69854;SDS011;57146;48.140;16.304;2022-08-23T03:46:42;2.10;;;0.43;;
69854;SDS011;57146;48.140;16.304;2022-08-23T03:49:10;2.38;;;0.55;;
69854;SDS011;57146;48.140;16.304;2022-08-23T03:51:49;1.93;;;0.50;;
69854;SDS011;57146;48.140;16.304;2022-08-23T03:54:16;3.13;;;0.60;;
69854;SDS011;57146;48.140;16.304;2022-08-23T03:56:53;2.30;;;0.60;;
69854;SDS011;57146;48.140;16.304;2022-08-23T03:59:23;3.10;;;0.63;;
69854;SDS011;57146;48.140;16.304;2022-08-23T04:01:51;2.13;;;0.47;;
69854;SDS011;57146;48.140;16.304;2022-08-23T04:04:19;2.60;;;0.70;;
69854;SDS011;57146;48.140;16.304;2022-08-23T04:07:09;2.33;;;0.57;;
69854;SDS011;57146;48.140;16.304;2022-08-23T04:09:36;1.77;;;0.30;;
69854;SDS011;57146;48.140;16.304;2022-08-23T04:12:02;2.67;;;0.45;;
69854;SDS011;57146;48.140;16.304;2022-08-23T04:14:43;2.42;;;0.60;;
69854;SDS011;57146;48.140;16.304;2022-08-23T04:17:11;2.47;;;0.40;;
69854;SDS011;57146;48.140;16.304;2022-08-23T04:19:39;2.63;;;0.40;;
69854;SDS011;57146;48.140;16.304;2022-08-23T04:22:11;2.45;;;0.60;;
69854;SDS011;57146;48.140;16.304;2022-08-23T04:24:40;1.98;;;0.50;;
69854;SDS011;57146;48.140;16.304;2022-08-23T04:27:08;2.40;;;0.45;;
69854;SDS011;57146;48.140;16.304;2022-08-23T04:29:36;2.67;;;0.70;;
69854;SDS011;57146;48.140;16.304;2022-08-23T04:32:03;3.15;;;0.70;;
69854;SDS011;57146;48.140;16.304;2022-08-23T04:34:37;2.60;;;0.52;;
69854;SDS011;57146;48.140;16.304;2022-08-23T04:37:05;3.08;;;0.60;;
69854;SDS011;57146;48.140;16.304;2022-08-23T04:39:36;3.08;;;0.88;;
69854;SDS011;57146;48.140;16.304;2022-08-23T04:42:08;2.93;;;0.77;;
69854;SDS011;57146;48.140;16.304;2022-08-23T04:44:40;2.95;;;0.80;;
69854;SDS011;57146;48.140;16.304;2022-08-23T04:47:07;3.10;;;1.00;;
69854;SDS011;57146;48.140;16.304;2022-08-23T04:49:34;3.40;;;1.20;;
69854;SDS011;57146;48.140;16.304;2022-08-23T04:52:02;3.30;;;1.00;;
69854;SDS011;57146;48.140;16.304;2022-08-23T04:54:30;2.50;;;0.90;;
69854;SDS011;57146;48.140;16.304;2022-08-23T04:57:15;2.53;;;0.85;;
69854;SDS011;57146;48.140;16.304;2022-08-23T04:59:44;3.30;;;1.20;;
69854;SDS011;57146;48.140;16.304;2022-08-23T05:02:11;3.13;;;1.20;;
69854;SDS011;57146;48.140;16.304;2022-08-23T05:04:38;3.20;;;1.20;;
69854;SDS011;57146;48.140;16.304;2022-08-23T05:07:05;3.27;;;1.10;;
69854;SDS011;57146;48.140;16.304;2022-08-23T05:09:32;2.88;;;1.25;;
69854;SDS011;57146;48.140;16.304;2022-08-23T05:11:59;3.20;;;1.40;;
69854;SDS011;57146;48.140;16.304;2022-08-23T05:14:27;2.72;;;1.00;;
69854;SDS011;57146;48.140;16.304;2022-08-23T05:16:54;3.13;;;1.20;;
69854;SDS011;57146;48.140;16.304;2022-08-23T05:19:22;3.60;;;1.40;;
69854;SDS011;57146;48.140;16.304;2022-08-23T05:21:49;3.15;;;1.33;;
69854;SDS011;57146;48.140;16.304;2022-08-23T05:24:27;5.18;;;1.48;;
69854;SDS011;57146;48.140;16.304;2022-08-23T05:26:54;3.35;;;1.38;;
69854;SDS011;57146;48.140;16.304;2022-08-23T05:29:21;3.67;;;1.60;;
69854;SDS011;57146;48.140;16.304;2022-08-23T05:31:49;4.10;;;1.50;;
69854;SDS011;57146;48.140;16.304;2022-08-23T05:34:19;3.92;;;1.50;;
69854;SDS011;57146;48.140;16.304;2022-08-23T05:36:54;3.25;;;1.58;;
69854;SDS011;57146;48.140;16.304;2022-08-23T05:39:34;4.40;;;1.42;;
69854;SDS011;57146;48.140;16.304;2022-08-23T05:42:06;3.60;;;1.70;;
69854;SDS011;57146;48.140;16.304;2022-08-23T05:44:35;4.43;;;1.70;;
69854;SDS011;57146;48.140;16.304;2022-08-23T05:47:04;3.78;;;1.70;;
69854;SDS011;57146;48.140;16.304;2022-08-23T05:49:42;4.00;;;1.50;;
69854;SDS011;57146;48.140;16.304;2022-08-23T05:52:10;3.97;;;1.45;;
69854;SDS011;57146;48.140;16.304;2022-08-23T05:54:41;3.70;;;1.40;;
69854;SDS011;57146;48.140;16.304;2022-08-23T05:57:26;3.87;;;1.50;;
69854;SDS011;57146;48.140;16.304;2022-08-23T05:59:52;3.50;;;1.50;;
69854;SDS011;57146;48.140;16.304;2022-08-23T06:02:19;4.18;;;1.83;;
69854;SDS011;57146;48.140;16.304;2022-08-23T06:04:46;3.42;;;1.45;;
69854;SDS011;57146;48.140;16.304;2022-08-23T06:07:13;3.53;;;1.40;;
69854;SDS011;57146;48.140;16.304;2022-08-23T06:09:40;3.33;;;1.30;;
69854;SDS011;57146;48.140;16.304;2022-08-23T06:12:09;3.58;;;1.58;;
69854;SDS011;57146;48.140;16.304;2022-08-23T06:14:37;3.20;;;1.33;;
69854;SDS011;57146;48.140;16.304;2022-08-23T06:17:04;3.20;;;1.58;;
69854;SDS011;57146;48.140;16.304;2022-08-23T06:19:31;3.92;;;1.65;;
69854;SDS011;57146;48.140;16.304;2022-08-23T06:21:58;3.30;;;1.63;;
69854;SDS011;57146;48.140;16.304;2022-08-23T06:24:30;3.42;;;1.60;;
69854;SDS011;57146;48.140;16.304;2022-08-23T06:27:05;3.58;;;1.50;;
69854;SDS011;57146;48.140;16.304;2022-08-23T06:29:32;2.92;;;1.20;;
69854;SDS011;57146;48.140;16.304;2022-08-23T06:32:17;3.35;;;1.23;;
69854;SDS011;57146;48.140;16.304;2022-08-23T06:35:07;4.70;;;1.13;;
69854;SDS011;57146;48.140;16.304;2022-08-23T06:38:02;3.50;;;1.27;;
69854;SDS011;57146;48.140;16.304;2022-08-23T06:40:47;3.80;;;1.38;;
69854;SDS011;57146;48.140;16.304;2022-08-23T06:43:23;3.78;;;1.25;;
69854;SDS011;57146;48.140;16.304;2022-08-23T06:46:20;4.28;;;1.40;;
69854;SDS011;57146;48.140;16.304;2022-08-23T06:48:54;3.10;;;1.30;;
69854;SDS011;57146;48.140;16.304;2022-08-23T06:51:29;3.10;;;1.10;;
69854;SDS011;57146;48.140;16.304;2022-08-23T06:54:11;3.78;;;1.30;;
69854;SDS011;57146;48.140;16.304;2022-08-23T06:56:41;2.75;;;0.80;;
69854;SDS011;57146;48.140;16.304;2022-08-23T06:59:15;3.30;;;1.20;;
69854;SDS011;57146;48.140;16.304;2022-08-23T07:02:07;3.83;;;1.30;;
69854;SDS011;57146;48.140;16.304;2022-08-23T07:05:07;2.92;;;1.10;;
69854;SDS011;57146;48.140;16.304;2022-08-23T07:07:48;5.72;;;3.13;;
69854;SDS011;57146;48.140;16.304;2022-08-23T07:10:15;2.92;;;0.80;;
69854;SDS011;57146;48.140;16.304;2022-08-23T07:12:42;3.30;;;1.00;;
69854;SDS011;57146;48.140;16.304;2022-08-23T07:15:11;2.10;;;0.70;;
69854;SDS011;57146;48.140;16.304;2022-08-23T07:17:41;2.33;;;0.40;;
69854;SDS011;57146;48.140;16.304;2022-08-23T07:20:08;2.15;;;0.55;;
69854;SDS011;57146;48.140;16.304;2022-08-23T07:22:39;2.50;;;0.90;;
69854;SDS011;57146;48.140;16.304;2022-08-23T07:25:07;2.50;;;0.80;;
69854;SDS011;57146;48.140;16.304;2022-08-23T07:27:37;3.17;;;0.70;;
69854;SDS011;57146;48.140;16.304;2022-08-23T07:30:06;2.10;;;0.40;;
69854;SDS011;57146;48.140;16.304;2022-08-23T07:32:36;2.10;;;0.30;;
69854;SDS011;57146;48.140;16.304;2022-08-23T07:35:29;2.65;;;0.45;;
69854;SDS011;57146;48.140;16.304;2022-08-23T07:37:57;2.97;;;0.28;;
69854;SDS011;57146;48.140;16.304;2022-08-23T07:40:30;1.80;;;0.17;;
69854;SDS011;57146;48.140;16.304;2022-08-23T07:43:05;1.70;;;0.20;;
69854;SDS011;57146;48.140;16.304;2022-08-23T07:45:34;1.60;;;0.15;;
69854;SDS011;57146;48.140;16.304;2022-08-23T07:48:02;3.38;;;0.20;;
69854;SDS011;57146;48.140;16.304;2022-08-23T07:50:36;1.40;;;0.20;;
69854;SDS011;57146;48.140;16.304;2022-08-23T07:53:20;2.00;;;0.10;;
69854;SDS011;57146;48.140;16.304;2022-08-23T07:56:06;2.05;;;0.00;;
69854;SDS011;57146;48.140;16.304;2022-08-23T07:59:00;2.50;;;0.10;;
69854;SDS011;57146;48.140;16.304;2022-08-23T08:01:40;0.88;;;0.00;;
69854;SDS011;57146;48.140;16.304;2022-08-23T08:04:09;0.70;;;0.00;;
69854;SDS011;57146;48.140;16.304;2022-08-23T08:09:09;1.25;;;0.00;;
69854;SDS011;57146;48.140;16.304;2022-08-23T08:11:36;1.35;;;0.00;;
69854;SDS011;57146;48.140;16.304;2022-08-23T08:14:09;1.67;;;0.00;;
69854;SDS011;57146;48.140;16.304;2022-08-23T08:16:46;0.68;;;0.00;;
69854;SDS011;57146;48.140;16.304;2022-08-23T08:19:20;0.70;;;0.00;;
69854;SDS011;57146;48.140;16.304;2022-08-23T08:22:19;1.30;;;0.00;;
69854;SDS011;57146;48.140;16.304;2022-08-23T08:25:18;0.50;;;0.00;;
69854;SDS011;57146;48.140;16.304;2022-08-23T08:27:48;1.20;;;0.00;;
69854;SDS011;57146;48.140;16.304;2022-08-23T08:30:15;1.25;;;0.00;;
69854;SDS011;57146;48.140;16.304;2022-08-23T08:32:43;0.83;;;0.00;;
69854;SDS011;57146;48.140;16.304;2022-08-23T08:35:13;1.05;;;0.05;;
69854;SDS011;57146;48.140;16.304;2022-08-23T08:37:41;1.40;;;0.00;;
69854;SDS011;57146;48.140;16.304;2022-08-23T08:40:08;1.23;;;0.00;;
69854;SDS011;57146;48.140;16.304;2022-08-23T08:42:42;1.23;;;0.00;;
69854;SDS011;57146;48.140;16.304;2022-08-23T08:45:37;1.00;;;0.00;;
69854;SDS011;57146;48.140;16.304;2022-08-23T08:48:25;1.45;;;0.10;;
69854;SDS011;57146;48.140;16.304;2022-08-23T08:51:00;1.25;;;0.10;;
69854;SDS011;57146;48.140;16.304;2022-08-23T08:53:34;2.22;;;0.30;;
69854;SDS011;57146;48.140;16.304;2022-08-23T08:56:20;2.22;;;0.10;;
69854;SDS011;57146;48.140;16.304;2022-08-23T08:59:09;1.30;;;0.10;;
69854;SDS011;57146;48.140;16.304;2022-08-23T09:01:41;1.33;;;0.10;;
69854;SDS011;57146;48.140;16.304;2022-08-23T09:04:12;1.70;;;0.10;;
69854;SDS011;57146;48.140;16.304;2022-08-23T09:15:57;2.42;;;0.60;;
69854;SDS011;57146;48.140;16.304;2022-08-23T09:18:31;2.60;;;0.30;;
69854;SDS011;57146;48.140;16.304;2022-08-23T09:21:00;1.95;;;0.32;;
69854;SDS011;57146;48.140;16.304;2022-08-23T09:23:32;2.70;;;0.30;;
69854;SDS011;57146;48.140;16.304;2022-08-23T09:26:19;2.37;;;0.40;;
69854;SDS011;57146;48.140;16.304;2022-08-23T09:28:50;2.40;;;0.60;;
69854;SDS011;57146;48.140;16.304;2022-08-23T09:31:38;2.42;;;0.50;;
69854;SDS011;57146;48.140;16.304;2022-08-23T09:34:09;2.35;;;0.70;;
69854;SDS011;57146;48.140;16.304;2022-08-23T09:40:16;2.60;;;0.80;;
69854;SDS011;57146;48.140;16.304;2022-08-23T09:42:45;4.10;;;1.10;;
69854;SDS011;57146;48.140;16.304;2022-08-23T09:45:31;5.13;;;1.10;;
69854;SDS011;57146;48.140;16.304;2022-08-23T09:48:05;2.20;;;0.80;;
69854;SDS011;57146;48.140;16.304;2022-08-23T09:50:48;4.07;;;0.90;;
69854;SDS011;57146;48.140;16.304;2022-08-23T09:53:23;2.83;;;0.70;;
69854;SDS011;57146;48.140;16.304;2022-08-23T09:55:52;2.58;;;0.60;;
69854;SDS011;57146;48.140;16.304;2022-08-23T09:58:30;3.80;;;0.80;;
69854;SDS011;57146;48.140;16.304;2022-08-23T10:01:11;3.58;;;1.10;;
69854;SDS011;57146;48.140;16.304;2022-08-23T10:04:06;2.90;;;0.95;;
69854;SDS011;57146;48.140;16.304;2022-08-23T10:06:36;2.70;;;0.80;;
69854;SDS011;57146;48.140;16.304;2022-08-23T10:09:06;3.47;;;1.20;;
69854;SDS011;57146;48.140;16.304;2022-08-23T10:11:42;2.72;;;0.82;;
69854;SDS011;57146;48.140;16.304;2022-08-23T10:14:12;3.25;;;0.93;;
69854;SDS011;57146;48.140;16.304;2022-08-23T10:16:59;4.30;;;0.80;;
69854;SDS011;57146;48.140;16.304;2022-08-23T10:19:43;2.97;;;0.60;;
69854;SDS011;57146;48.140;16.304;2022-08-23T10:25:21;3.75;;;1.20;;
69854;SDS011;57146;48.140;16.304;2022-08-23T10:33:39;1.90;;;0.30;;
69854;SDS011;57146;48.140;16.304;2022-08-23T10:36:30;3.47;;;1.10;;
69854;SDS011;57146;48.140;16.304;2022-08-23T10:39:10;2.20;;;0.52;;
69854;SDS011;57146;48.140;16.304;2022-08-23T10:42:15;3.72;;;0.77;;
69854;SDS011;57146;48.140;16.304;2022-08-23T10:44:55;2.85;;;0.90;;
69854;SDS011;57146;48.140;16.304;2022-08-23T10:47:30;3.80;;;0.80;;
69854;SDS011;57146;48.140;16.304;2022-08-23T10:50:03;3.03;;;0.60;;
69854;SDS011;57146;48.140;16.304;2022-08-23T10:52:59;3.08;;;0.60;;
69854;SDS011;57146;48.140;16.304;2022-08-23T10:55:39;2.20;;;0.50;;
69854;SDS011;57146;48.140;16.304;2022-08-23T10:58:12;2.17;;;0.40;;
69854;SDS011;57146;48.140;16.304;2022-08-23T11:00:46;2.13;;;0.60;;
69854;SDS011;57146;48.140;16.304;2022-08-23T11:03:20;2.80;;;0.70;;
69854;SDS011;57146;48.140;16.304;2022-08-23T11:09:04;3.28;;;0.80;;
69854;SDS011;57146;48.140;16.304;2022-08-23T11:17:51;2.22;;;0.32;;
69854;SDS011;57146;48.140;16.304;2022-08-23T11:26:03;2.83;;;0.50;;
69854;SDS011;57146;48.140;16.304;2022-08-23T11:28:39;2.10;;;0.70;;
69854;SDS011;57146;48.140;16.304;2022-08-23T11:31:26;2.33;;;0.52;;
69854;SDS011;57146;48.140;16.304;2022-08-23T11:33:59;2.30;;;0.30;;
69854;SDS011;57146;48.140;16.304;2022-08-23T11:36:38;2.55;;;0.50;;
69854;SDS011;57146;48.140;16.304;2022-08-23T11:39:13;2.72;;;0.45;;
69854;SDS011;57146;48.140;16.304;2022-08-23T11:44:23;2.30;;;0.60;;
69854;SDS011;57146;48.140;16.304;2022-08-23T11:47:00;2.60;;;0.70;;
69854;SDS011;57146;48.140;16.304;2022-08-23T11:49:36;2.20;;;0.63;;
69854;SDS011;57146;48.140;16.304;2022-08-23T12:03:25;2.25;;;0.65;;
69854;SDS011;57146;48.140;16.304;2022-08-23T12:08:27;2.10;;;0.60;;
69854;SDS011;57146;48.140;16.304;2022-08-23T12:10:57;2.17;;;0.52;;
69854;SDS011;57146;48.140;16.304;2022-08-23T12:13:29;2.13;;;0.50;;
69854;SDS011;57146;48.140;16.304;2022-08-23T12:21:18;1.80;;;0.40;;
69854;SDS011;57146;48.140;16.304;2022-08-23T12:23:50;2.08;;;0.45;;
69854;SDS011;57146;48.140;16.304;2022-08-23T12:29:06;2.15;;;0.20;;
69854;SDS011;57146;48.140;16.304;2022-08-23T12:32:02;2.05;;;0.30;;
69854;SDS011;57146;48.140;16.304;2022-08-23T12:37:25;2.50;;;0.30;;
69854;SDS011;57146;48.140;16.304;2022-08-23T12:40:00;1.80;;;0.30;;
69854;SDS011;57146;48.140;16.304;2022-08-23T12:42:33;2.55;;;0.50;;
69854;SDS011;57146;48.140;16.304;2022-08-23T12:47:41;2.00;;;0.40;;
69854;SDS011;57146;48.140;16.304;2022-08-23T12:52:39;1.88;;;0.30;;
69854;SDS011;57146;48.140;16.304;2022-08-23T12:55:16;1.58;;;0.30;;
69854;SDS011;57146;48.140;16.304;2022-08-23T12:57:49;1.83;;;0.30;;
69854;SDS011;57146;48.140;16.304;2022-08-23T13:00:21;1.70;;;0.30;;
69854;SDS011;57146;48.140;16.304;2022-08-23T13:02:54;1.63;;;0.20;;
69854;SDS011;57146;48.140;16.304;2022-08-23T13:08:16;2.05;;;0.30;;
69854;SDS011;57146;48.140;16.304;2022-08-23T13:10:59;15.15;;;1.80;;
69854;SDS011;57146;48.140;16.304;2022-08-23T13:13:33;1.90;;;0.30;;
69854;SDS011;57146;48.140;16.304;2022-08-23T13:16:21;1.77;;;0.20;;
69854;SDS011;57146;48.140;16.304;2022-08-23T13:18:53;1.25;;;0.10;;
69854;SDS011;57146;48.140;16.304;2022-08-23T13:23:48;3.97;;;0.22;;
69854;SDS011;57146;48.140;16.304;2022-08-23T13:26:24;1.73;;;0.30;;
69854;SDS011;57146;48.140;16.304;2022-08-23T13:37:19;1.77;;;0.10;;
69854;SDS011;57146;48.140;16.304;2022-08-23T13:39:52;2.63;;;0.20;;
69854;SDS011;57146;48.140;16.304;2022-08-23T13:44:55;2.15;;;0.10;;
69854;SDS011;57146;48.140;16.304;2022-08-23T13:47:23;1.25;;;0.10;;
69854;SDS011;57146;48.140;16.304;2022-08-23T13:49:53;1.33;;;0.10;;
69854;SDS011;57146;48.140;16.304;2022-08-23T13:52:24;1.80;;;0.10;;
69854;SDS011;57146;48.140;16.304;2022-08-23T13:55:11;2.28;;;0.20;;
69854;SDS011;57146;48.140;16.304;2022-08-23T13:57:38;1.83;;;0.10;;
69854;SDS011;57146;48.140;16.304;2022-08-23T14:00:06;1.33;;;0.10;;
69854;SDS011;57146;48.140;16.304;2022-08-23T14:02:35;1.55;;;0.10;;
69854;SDS011;57146;48.140;16.304;2022-08-23T14:05:04;1.60;;;0.20;;
69854;SDS011;57146;48.140;16.304;2022-08-23T14:07:32;1.50;;;0.10;;
69854;SDS011;57146;48.140;16.304;2022-08-23T14:09:59;1.33;;;0.20;;
69854;SDS011;57146;48.140;16.304;2022-08-23T14:12:28;1.88;;;0.17;;
69854;SDS011;57146;48.140;16.304;2022-08-23T14:14:57;1.63;;;0.10;;
69854;SDS011;57146;48.140;16.304;2022-08-23T14:17:26;2.00;;;0.30;;
69854;SDS011;57146;48.140;16.304;2022-08-23T14:19:53;2.03;;;0.20;;
69854;SDS011;57146;48.140;16.304;2022-08-23T14:22:40;2.20;;;0.15;;
69854;SDS011;57146;48.140;16.304;2022-08-23T14:25:07;1.90;;;0.43;;
69854;SDS011;57146;48.140;16.304;2022-08-23T14:27:36;1.80;;;0.25;;
69854;SDS011;57146;48.140;16.304;2022-08-23T14:30:17;1.87;;;0.27;;
69854;SDS011;57146;48.140;16.304;2022-08-23T14:32:56;2.53;;;0.10;;
69854;SDS011;57146;48.140;16.304;2022-08-23T14:35:24;2.38;;;0.20;;
69854;SDS011;57146;48.140;16.304;2022-08-23T14:37:52;2.45;;;0.20;;
69854;SDS011;57146;48.140;16.304;2022-08-23T14:40:29;1.65;;;0.20;;
69854;SDS011;57146;48.140;16.304;2022-08-23T14:42:56;2.07;;;0.20;;
69854;SDS011;57146;48.140;16.304;2022-08-23T14:45:23;1.75;;;0.20;;
69854;SDS011;57146;48.140;16.304;2022-08-23T14:47:50;1.45;;;0.10;;
69854;SDS011;57146;48.140;16.304;2022-08-23T14:50:17;2.03;;;0.30;;
69854;SDS011;57146;48.140;16.304;2022-08-23T14:52:45;2.28;;;0.35;;
69854;SDS011;57146;48.140;16.304;2022-08-23T14:55:12;2.53;;;0.37;;
69854;SDS011;57146;48.140;16.304;2022-08-23T14:57:40;2.33;;;0.20;;
69854;SDS011;57146;48.140;16.304;2022-08-23T15:00:07;1.60;;;0.20;;
69854;SDS011;57146;48.140;16.304;2022-08-23T15:02:37;1.83;;;0.40;;
69854;SDS011;57146;48.140;16.304;2022-08-23T15:05:07;2.22;;;0.28;;
69854;SDS011;57146;48.140;16.304;2022-08-23T15:07:34;1.40;;;0.20;;
69854;SDS011;57146;48.140;16.304;2022-08-23T15:10:01;1.83;;;0.30;;
69854;SDS011;57146;48.140;16.304;2022-08-23T15:12:29;1.65;;;0.13;;
69854;SDS011;57146;48.140;16.304;2022-08-23T15:15:17;1.40;;;0.13;;
69854;SDS011;57146;48.140;16.304;2022-08-23T15:17:53;1.90;;;0.20;;
69854;SDS011;57146;48.140;16.304;2022-08-23T15:20:24;1.93;;;0.20;;
69854;SDS011;57146;48.140;16.304;2022-08-23T15:22:54;1.88;;;0.20;;
69854;SDS011;57146;48.140;16.304;2022-08-23T15:25:22;2.22;;;0.20;;
69854;SDS011;57146;48.140;16.304;2022-08-23T15:27:50;1.55;;;0.10;;
69854;SDS011;57146;48.140;16.304;2022-08-23T15:30:18;2.53;;;0.30;;
69854;SDS011;57146;48.140;16.304;2022-08-23T15:32:46;1.80;;;0.20;;
69854;SDS011;57146;48.140;16.304;2022-08-23T15:35:32;1.60;;;0.20;;
69854;SDS011;57146;48.140;16.304;2022-08-23T15:38:05;2.10;;;0.20;;
69854;SDS011;57146;48.140;16.304;2022-08-23T15:40:32;3.25;;;0.22;;
69854;SDS011;57146;48.140;16.304;2022-08-23T15:42:58;1.85;;;0.30;;
69854;SDS011;57146;48.140;16.304;2022-08-23T15:45:25;2.60;;;0.40;;
69854;SDS011;57146;48.140;16.304;2022-08-23T15:47:53;2.53;;;0.28;;
69854;SDS011;57146;48.140;16.304;2022-08-23T15:50:22;1.77;;;0.13;;
69854;SDS011;57146;48.140;16.304;2022-08-23T15:52:52;1.50;;;0.10;;
69854;SDS011;57146;48.140;16.304;2022-08-23T15:55:19;1.70;;;0.20;;
69854;SDS011;57146;48.140;16.304;2022-08-23T15:57:48;2.23;;;0.50;;
69854;SDS011;57146;48.140;16.304;2022-08-23T16:00:18;2.15;;;0.20;;
69854;SDS011;57146;48.140;16.304;2022-08-23T16:02:49;1.77;;;0.35;;
69854;SDS011;57146;48.140;16.304;2022-08-23T16:05:37;2.22;;;0.28;;
69854;SDS011;57146;48.140;16.304;2022-08-23T16:08:06;2.03;;;0.20;;
69854;SDS011;57146;48.140;16.304;2022-08-23T16:10:36;1.80;;;0.40;;
69854;SDS011;57146;48.140;16.304;2022-08-23T16:13:03;1.70;;;0.22;;
69854;SDS011;57146;48.140;16.304;2022-08-23T16:15:29;1.60;;;0.20;;
69854;SDS011;57146;48.140;16.304;2022-08-23T16:17:56;1.80;;;0.30;;
69854;SDS011;57146;48.140;16.304;2022-08-23T16:20:25;1.52;;;0.20;;
69854;SDS011;57146;48.140;16.304;2022-08-23T16:22:52;1.73;;;0.30;;
69854;SDS011;57146;48.140;16.304;2022-08-23T16:25:18;2.13;;;0.30;;
69854;SDS011;57146;48.140;16.304;2022-08-23T16:27:45;2.00;;;0.30;;
69854;SDS011;57146;48.140;16.304;2022-08-23T16:30:12;1.60;;;0.20;;
69854;SDS011;57146;48.140;16.304;2022-08-23T16:32:40;2.13;;;0.35;;
69854;SDS011;57146;48.140;16.304;2022-08-23T16:35:08;1.80;;;0.30;;
69854;SDS011;57146;48.140;16.304;2022-08-23T16:37:35;2.10;;;0.40;;
69854;SDS011;57146;48.140;16.304;2022-08-23T16:40:05;1.98;;;0.40;;
69854;SDS011;57146;48.140;16.304;2022-08-23T16:42:33;2.42;;;0.40;;